createdAt,value
2019-01-10T00:03:07.958Z,1.00
2019-01-10T00:05:37.474Z,1.40
2019-01-10T00:08:07.150Z,1.03
2019-01-10T00:10:55.913Z,1.10
2019-01-10T00:13:25.393Z,1.10
2019-01-10T00:16:00.725Z,1.27
2019-01-10T00:18:49.237Z,1.43
2019-01-10T00:21:18.711Z,1.20
2019-01-10T00:23:48.225Z,1.33
2019-01-10T00:29:06.273Z,1.47
2019-01-10T00:31:35.740Z,2.13
2019-01-10T00:34:05.212Z,1.10
2019-01-10T00:36:35.063Z,1.40
2019-01-10T00:39:27.848Z,1.07
2019-01-10T00:41:57.328Z,1.30
2019-01-10T00:44:26.922Z,1.23
2019-01-10T00:46:56.402Z,1.20
2019-01-10T00:49:25.891Z,1.20
2019-01-10T00:51:55.381Z,1.20
2019-01-10T00:54:24.904Z,1.17
2019-01-10T00:56:54.363Z,1.57
2019-01-10T00:59:23.852Z,1.00
2019-01-10T01:01:53.321Z,1.10
2019-01-10T01:04:22.809Z,1.45
2019-01-10T01:06:52.281Z,0.97
2019-01-10T01:09:23.445Z,1.43
2019-01-10T01:11:53.172Z,1.47
2019-01-10T01:14:22.642Z,1.47
2019-01-10T01:16:52.119Z,1.15
2019-01-10T01:19:23.224Z,1.20
2019-01-10T01:21:52.688Z,1.20
2019-01-10T01:24:22.249Z,1.42
2019-01-10T01:26:51.896Z,1.30
2019-01-10T01:29:21.458Z,1.40
2019-01-10T01:34:39.427Z,1.20
2019-01-10T01:37:08.889Z,1.30
2019-01-10T01:39:38.396Z,1.05
2019-01-10T01:42:07.922Z,1.13
2019-01-10T01:44:37.408Z,0.90
2019-01-10T01:47:06.888Z,1.33
2019-01-10T01:49:36.399Z,1.40
2019-01-10T01:52:05.911Z,1.33
2019-01-10T01:54:35.579Z,1.10
2019-01-10T01:57:05.541Z,1.20
2019-01-10T01:59:35.802Z,1.20
2019-01-10T02:04:54.076Z,1.10
2019-01-10T02:07:23.579Z,1.60
2019-01-10T02:09:53.044Z,0.97
2019-01-10T02:12:22.595Z,1.23
2019-01-10T02:14:52.116Z,1.00
2019-01-10T02:17:48.535Z,0.98
2019-01-10T02:20:17.764Z,1.00
2019-01-10T02:22:47.310Z,1.03
2019-01-10T02:25:17.055Z,1.20
2019-01-10T02:30:50.130Z,0.90
2019-01-10T02:33:19.612Z,1.10
2019-01-10T02:35:49.085Z,1.07
2019-01-10T02:38:37.833Z,1.00
2019-01-10T02:41:19.229Z,1.20
2019-01-10T02:43:48.700Z,1.37
2019-01-10T02:46:18.168Z,1.27
2019-01-10T02:48:47.656Z,1.00
2019-01-10T02:51:23.118Z,1.00
2019-01-10T02:53:52.607Z,1.03
2019-01-10T02:56:22.142Z,1.10
2019-01-10T02:58:53.286Z,1.00
2019-01-10T03:01:22.773Z,1.85
2019-01-10T03:03:52.257Z,1.13
2019-01-10T03:06:40.781Z,1.13
2019-01-10T03:09:29.789Z,1.05
2019-01-10T03:11:59.283Z,1.23
2019-01-10T03:14:28.790Z,1.20
2019-01-10T03:16:58.255Z,1.00
2019-01-10T03:19:27.934Z,1.00
2019-01-10T03:21:57.411Z,1.03
2019-01-10T03:24:26.953Z,1.30
2019-01-10T03:26:56.453Z,2.13
2019-01-10T03:29:44.367Z,1.13
2019-01-10T03:32:13.843Z,1.10
2019-01-10T03:34:43.535Z,1.20
2019-01-10T03:45:21.707Z,1.03
2019-01-10T03:47:51.183Z,1.12
2019-01-10T03:50:20.743Z,1.70
2019-01-10T03:52:50.349Z,1.17
2019-01-10T03:55:19.820Z,1.10
2019-01-10T03:57:49.354Z,1.50
2019-01-10T04:00:59.787Z,1.20
2019-01-10T04:03:29.327Z,1.22
2019-01-10T04:05:58.800Z,1.30
2019-01-10T04:08:28.277Z,0.90
2019-01-10T04:10:57.748Z,1.00
2019-01-10T04:13:27.216Z,1.37
2019-01-10T04:15:56.717Z,1.00
2019-01-10T04:18:26.186Z,1.10
2019-01-10T04:20:55.667Z,1.10
2019-01-10T04:23:25.216Z,1.20
2019-01-10T04:26:06.892Z,1.83
2019-01-10T04:28:36.593Z,1.00
2019-01-10T04:31:06.694Z,1.00
2019-01-10T04:33:36.720Z,1.00
2019-01-10T04:36:06.570Z,1.10
2019-01-10T04:38:36.557Z,1.12
2019-01-10T04:41:06.624Z,0.93
2019-01-10T04:43:36.560Z,1.30
2019-01-10T04:46:06.693Z,0.95
2019-01-10T04:48:36.639Z,1.40
2019-01-10T04:51:06.828Z,1.05
2019-01-10T04:53:36.655Z,1.10
2019-01-10T04:56:06.869Z,1.15
2019-01-10T04:58:36.687Z,1.00
2019-01-10T05:01:07.017Z,1.10
2019-01-10T05:03:36.828Z,1.00
2019-01-10T05:06:06.959Z,1.20
2019-01-10T05:08:36.879Z,1.30
2019-01-10T05:11:06.798Z,1.37
2019-01-10T05:13:37.003Z,1.15
2019-01-10T05:16:06.723Z,1.20
2019-01-10T05:18:36.188Z,1.30
2019-01-10T05:21:05.664Z,1.10
2019-01-10T05:23:35.131Z,1.50
2019-01-10T05:29:06.631Z,0.90
2019-01-10T05:31:36.187Z,1.47
2019-01-10T05:34:05.709Z,1.10
2019-01-10T05:36:35.172Z,1.02
2019-01-10T05:39:08.217Z,1.10
2019-01-10T05:41:37.723Z,1.10
2019-01-10T05:46:55.903Z,0.88
2019-01-10T05:49:25.409Z,0.93
2019-01-10T05:54:49.246Z,1.10
2019-01-10T05:57:18.725Z,1.35
2019-01-10T05:59:48.196Z,1.40
2019-01-10T06:02:17.731Z,1.20
2019-01-10T06:04:47.216Z,1.10
2019-01-10T06:07:16.689Z,1.03
2019-01-10T06:09:46.167Z,1.10
2019-01-10T06:12:15.659Z,1.52
2019-01-10T06:14:45.118Z,1.60
2019-01-10T06:17:14.841Z,1.30
2019-01-10T06:19:44.305Z,1.00
2019-01-10T06:22:13.805Z,1.37
2019-01-10T06:27:45.445Z,1.00
2019-01-10T06:30:17.852Z,1.52
2019-01-10T06:32:47.359Z,1.47
2019-01-10T06:35:16.991Z,1.10
2019-01-10T06:38:05.726Z,1.30
2019-01-10T06:40:36.140Z,1.30
2019-01-10T06:43:06.383Z,1.30
2019-01-10T06:45:36.272Z,1.30
2019-01-10T06:48:06.233Z,1.67
2019-01-10T06:50:35.685Z,2.23
2019-01-10T06:53:05.364Z,1.40
2019-01-10T06:55:34.819Z,1.10
2019-01-10T06:58:04.382Z,1.20
2019-01-10T07:00:33.858Z,1.50
2019-01-10T07:03:15.543Z,1.70
2019-01-10T07:05:45.012Z,1.13
2019-01-10T07:08:14.487Z,1.37
2019-01-10T07:10:43.949Z,1.63
2019-01-10T07:13:13.441Z,1.17
2019-01-10T07:15:42.966Z,1.40
2019-01-10T07:18:12.410Z,1.33
2019-01-10T07:20:42.059Z,1.07
2019-01-10T07:23:11.575Z,1.50
2019-01-10T07:25:41.063Z,1.90
2019-01-10T07:28:30.482Z,1.55
2019-01-10T07:30:59.969Z,1.73
2019-01-10T07:33:35.984Z,1.57
2019-01-10T07:36:06.097Z,1.82
2019-01-10T07:38:54.696Z,1.73
2019-01-10T07:41:24.384Z,1.33
2019-01-10T07:43:53.885Z,1.62
2019-01-10T07:46:23.452Z,1.33
2019-01-10T07:48:52.944Z,1.30
2019-01-10T07:57:06.167Z,1.52
2019-01-10T07:59:36.070Z,1.20
2019-01-10T08:02:06.474Z,1.22
2019-01-10T08:04:36.113Z,1.10
2019-01-10T08:07:06.151Z,1.40
2019-01-10T08:09:35.635Z,1.50
2019-01-10T08:12:05.267Z,1.52
2019-01-10T08:14:34.810Z,1.13
2019-01-10T08:17:04.368Z,1.30
2019-01-10T08:19:33.830Z,1.23
2019-01-10T08:22:15.418Z,1.60
2019-01-10T08:24:44.891Z,1.50
2019-01-10T08:27:14.371Z,1.47
2019-01-10T08:29:43.846Z,1.75
2019-01-10T08:32:13.363Z,1.20
2019-01-10T08:34:42.828Z,2.10
2019-01-10T08:37:12.326Z,2.67
2019-01-10T08:39:41.774Z,1.20
2019-01-10T08:42:11.269Z,1.20
2019-01-10T08:44:40.780Z,1.40
2019-01-10T08:47:10.209Z,1.13
2019-01-10T08:49:39.699Z,1.47
2019-01-10T08:52:09.159Z,1.43
2019-01-10T08:54:38.643Z,1.37
2019-01-10T08:57:08.281Z,1.70
2019-01-10T08:59:38.201Z,1.55
2019-01-10T09:02:08.200Z,1.55
2019-01-10T09:04:38.282Z,2.17
2019-01-10T09:07:08.215Z,1.70
2019-01-10T09:09:38.485Z,3.50
2019-01-10T09:12:08.388Z,3.40
2019-01-10T09:14:38.454Z,2.95
2019-01-10T09:17:08.412Z,3.43
2019-01-10T09:19:50.964Z,2.90
2019-01-10T09:22:20.476Z,2.30
2019-01-10T09:24:49.958Z,3.73
2019-01-10T09:27:19.427Z,5.55
2019-01-10T09:29:48.909Z,3.60
2019-01-10T09:32:18.413Z,3.37
2019-01-10T09:34:47.893Z,2.00
2019-01-10T09:37:17.368Z,2.03
2019-01-10T09:39:46.856Z,2.13
2019-01-10T09:45:21.221Z,2.27
2019-01-10T09:47:50.721Z,2.12
2019-01-10T09:50:21.057Z,2.65
2019-01-10T09:55:52.972Z,1.80
2019-01-10T09:58:22.491Z,1.57
2019-01-10T10:00:51.997Z,2.00
2019-01-10T10:03:21.541Z,1.70
2019-01-10T10:05:51.078Z,1.70
2019-01-10T10:08:20.565Z,1.97
2019-01-10T10:10:50.033Z,2.23
2019-01-10T10:13:19.516Z,1.97
2019-01-10T10:15:52.787Z,3.10
2019-01-10T10:18:25.747Z,2.40
2019-01-10T10:20:55.214Z,1.70
2019-01-10T10:23:26.893Z,1.80
2019-01-10T10:26:01.126Z,1.57
2019-01-10T10:28:30.816Z,2.00
2019-01-10T10:31:00.286Z,1.93
2019-01-10T10:33:29.986Z,2.33
2019-01-10T10:35:59.448Z,1.70
2019-01-10T10:41:23.556Z,1.80
2019-01-10T10:43:53.036Z,2.43
2019-01-10T10:46:22.494Z,2.37
2019-01-10T10:48:51.988Z,2.13
2019-01-10T10:51:21.445Z,2.07
2019-01-10T10:53:50.923Z,2.30
2019-01-10T10:56:20.386Z,1.77
2019-01-10T10:58:49.859Z,2.03
2019-01-10T11:01:19.318Z,2.80
2019-01-10T11:03:48.798Z,2.30
2019-01-10T11:06:18.275Z,2.20
2019-01-10T11:08:47.762Z,2.70
2019-01-10T11:11:17.210Z,2.30
2019-01-10T11:13:46.770Z,2.43
2019-01-10T11:16:16.268Z,2.33
2019-01-10T11:18:45.831Z,2.70
2019-01-10T11:24:15.125Z,2.80
2019-01-10T11:26:44.832Z,6.73
2019-01-10T11:29:15.410Z,3.80
2019-01-10T11:31:45.161Z,3.33
2019-01-10T11:34:15.401Z,2.80
2019-01-10T11:36:45.264Z,2.20
2019-01-10T11:39:15.157Z,3.42
2019-01-10T11:41:45.171Z,2.67
2019-01-10T11:44:15.181Z,2.75
2019-01-10T11:46:45.165Z,4.55
2019-01-10T11:49:15.204Z,5.58
2019-01-10T11:51:45.279Z,3.27
2019-01-10T11:54:15.215Z,2.87
2019-01-10T11:56:45.244Z,3.42
2019-01-10T11:59:15.357Z,3.40
2019-01-10T12:01:45.232Z,3.08
2019-01-10T12:04:15.326Z,3.60
2019-01-10T12:06:45.267Z,3.05
2019-01-10T12:09:15.272Z,3.50
2019-01-10T12:11:44.818Z,2.77
2019-01-10T12:14:15.330Z,2.58
2019-01-10T12:16:44.790Z,3.43
2019-01-10T12:19:34.617Z,3.25
2019-01-10T12:22:04.078Z,2.97
2019-01-10T12:24:33.552Z,2.83
2019-01-10T12:27:03.026Z,4.33
2019-01-10T12:29:36.321Z,3.13
2019-01-10T12:32:09.435Z,3.37
2019-01-10T12:34:38.984Z,2.80
2019-01-10T12:37:08.518Z,4.17
2019-01-10T12:39:38.075Z,3.40
2019-01-10T12:42:07.754Z,3.33
2019-01-10T12:44:56.539Z,3.30
2019-01-10T12:47:26.019Z,3.77
2019-01-10T12:49:55.591Z,3.60
2019-01-10T12:52:25.061Z,2.80
2019-01-10T12:54:54.786Z,2.83
2019-01-10T12:57:24.309Z,4.08
2019-01-10T12:59:53.825Z,2.80
2019-01-10T13:02:23.369Z,3.33
2019-01-10T13:05:11.959Z,3.07
2019-01-10T13:07:41.429Z,2.83
2019-01-10T13:10:13.150Z,3.50
2019-01-10T13:12:42.778Z,4.30
2019-01-10T13:15:15.271Z,3.73
2019-01-10T13:17:44.784Z,2.77
2019-01-10T13:20:15.048Z,4.17
2019-01-10T13:22:44.576Z,3.97
2019-01-10T13:25:15.840Z,3.17
2019-01-10T13:27:45.326Z,3.10
2019-01-10T13:30:34.068Z,2.90
2019-01-10T13:33:03.531Z,3.47
2019-01-10T13:35:33.085Z,3.20
2019-01-10T13:38:02.556Z,3.67
2019-01-10T13:40:32.135Z,5.50
2019-01-10T13:43:01.600Z,3.30
2019-01-10T13:45:31.062Z,3.90
2019-01-10T13:48:00.600Z,3.65
2019-01-10T13:50:36.170Z,3.83
2019-01-10T13:53:06.069Z,4.00
2019-01-10T13:55:35.823Z,3.53
2019-01-10T13:58:05.485Z,7.80
2019-01-10T14:00:35.785Z,4.17
2019-01-10T14:03:25.395Z,3.10
2019-01-10T14:05:54.898Z,3.33
2019-01-10T14:08:24.403Z,3.30
2019-01-10T14:10:53.881Z,3.20
2019-01-10T14:13:23.367Z,3.20
2019-01-10T14:16:11.941Z,6.60
2019-01-10T14:18:41.425Z,7.67
2019-01-10T14:21:10.893Z,6.60
2019-01-10T14:23:40.388Z,5.30
2019-01-10T14:26:09.902Z,4.50
2019-01-10T14:28:39.584Z,4.07
2019-01-10T14:31:09.135Z,3.53
2019-01-10T14:33:50.464Z,4.30
2019-01-10T14:36:32.122Z,9.63
2019-01-10T14:39:01.630Z,5.03
2019-01-10T14:41:32.839Z,4.00
2019-01-10T14:44:21.610Z,3.22
2019-01-10T14:46:51.102Z,3.70
2019-01-10T14:49:20.675Z,3.30
2019-01-10T14:51:50.213Z,3.77
2019-01-10T14:54:19.681Z,3.20
2019-01-10T14:56:49.194Z,3.73
2019-01-10T14:59:19.488Z,7.03
2019-01-10T15:01:49.433Z,4.35
2019-01-10T15:04:18.957Z,4.20
2019-01-10T15:06:48.500Z,4.78
2019-01-10T15:09:32.114Z,6.90
2019-01-10T15:11:54.769Z,10.80
2019-01-10T15:14:24.258Z,6.33
2019-01-10T15:16:53.783Z,4.70
2019-01-10T15:19:23.249Z,5.40
2019-01-10T15:21:52.740Z,3.77
2019-01-10T15:24:22.206Z,3.20
2019-01-10T15:26:51.705Z,3.23
2019-01-10T15:29:21.751Z,3.53
2019-01-10T15:31:51.263Z,3.53
2019-01-10T15:34:20.803Z,3.30
2019-01-10T15:36:50.351Z,3.10
2019-01-10T15:39:19.947Z,2.77
2019-01-10T15:41:49.410Z,3.42
2019-01-10T15:44:18.913Z,3.42
2019-01-10T15:46:48.445Z,5.87
2019-01-10T15:49:32.228Z,7.70
2019-01-10T15:51:54.388Z,7.17
2019-01-10T15:54:23.929Z,4.60
2019-01-10T15:56:53.422Z,5.30
2019-01-10T15:59:23.058Z,4.20
2019-01-10T16:01:52.619Z,3.60
2019-01-10T16:04:22.117Z,4.70
2019-01-10T16:06:51.627Z,3.90
2019-01-10T16:09:21.265Z,4.07
2019-01-10T16:11:50.922Z,3.40
2019-01-10T16:14:20.423Z,2.87
2019-01-10T16:16:49.897Z,3.43
2019-01-10T16:19:19.410Z,3.27
2019-01-10T16:21:48.929Z,3.97
2019-01-10T16:24:18.438Z,5.97
2019-01-10T16:26:47.925Z,6.83
2019-01-10T16:29:17.437Z,5.23
2019-01-10T16:31:46.912Z,4.33
2019-01-10T16:34:16.437Z,3.20
2019-01-10T16:37:05.069Z,2.80
2019-01-10T16:39:34.620Z,3.63
2019-01-10T16:42:04.237Z,3.47
2019-01-10T16:44:52.795Z,3.53
2019-01-10T16:47:22.346Z,3.10
2019-01-10T16:49:51.970Z,2.83
2019-01-10T16:52:21.504Z,3.60
2019-01-10T16:54:51.041Z,4.17
2019-01-10T16:57:20.603Z,5.70
2019-01-10T16:59:50.114Z,6.90
2019-01-10T17:02:19.706Z,4.85
2019-01-10T17:04:49.265Z,5.03
2019-01-10T17:10:07.624Z,7.23
2019-01-10T17:12:37.152Z,5.20
2019-01-10T17:15:07.064Z,5.93
2019-01-10T17:17:37.764Z,7.40
2019-01-10T17:20:35.801Z,5.30
2019-01-10T17:23:05.454Z,4.43
2019-01-10T17:25:34.987Z,5.37
2019-01-10T17:28:04.665Z,4.70
2019-01-10T17:30:34.208Z,6.27
2019-01-10T17:33:04.922Z,7.37
2019-01-10T17:35:36.137Z,7.10
2019-01-10T17:38:26.964Z,7.13
2019-01-10T17:40:56.439Z,6.83
2019-01-10T17:43:26.261Z,11.57
2019-01-10T17:45:55.848Z,11.63
2019-01-10T17:48:25.632Z,8.70
2019-01-10T17:50:55.201Z,9.77
2019-01-10T17:53:44.011Z,11.07
2019-01-10T17:56:13.524Z,10.33
2019-01-10T17:58:44.745Z,9.60
2019-01-10T18:01:14.452Z,9.03
2019-01-10T18:03:43.991Z,9.45
2019-01-10T18:06:13.605Z,10.90
2019-01-10T18:11:32.850Z,11.77
2019-01-10T18:14:15.098Z,8.93
2019-01-10T18:16:45.696Z,8.77
2019-01-10T18:19:15.288Z,25.80
2019-01-10T18:21:44.841Z,9.53
2019-01-10T18:24:14.451Z,9.87
2019-01-10T18:26:44.006Z,7.50
2019-01-10T18:29:13.584Z,8.20
2019-01-10T18:31:43.129Z,7.17
2019-01-10T18:34:12.712Z,6.33
2019-01-10T18:36:42.272Z,8.30
2019-01-10T18:39:11.841Z,8.33
2019-01-10T18:41:41.405Z,7.27
2019-01-10T18:44:10.994Z,6.97
2019-01-10T18:46:40.592Z,7.97
2019-01-10T18:49:10.233Z,8.57
2019-01-10T18:51:39.759Z,10.30
2019-01-10T18:54:09.268Z,8.63
2019-01-10T18:56:38.804Z,7.20
2019-01-10T18:59:08.369Z,10.47
2019-01-10T19:01:37.892Z,7.53
2019-01-10T19:04:07.497Z,6.90
2019-01-10T19:06:37.302Z,9.27
2019-01-10T19:09:08.317Z,7.97
2019-01-10T19:11:39.487Z,9.95
2019-01-10T19:14:09.298Z,8.93
2019-01-10T19:16:38.860Z,8.43
2019-01-10T19:19:29.292Z,8.65
2019-01-10T19:21:58.911Z,10.30
2019-01-10T19:24:49.386Z,8.40
2019-01-10T19:27:19.064Z,9.00
2019-01-10T19:29:48.666Z,10.27
2019-01-10T19:32:18.162Z,8.53
2019-01-10T19:34:47.823Z,9.83
2019-01-10T19:37:17.342Z,7.93
2019-01-10T19:39:46.903Z,9.43
2019-01-10T19:42:37.314Z,12.15
2019-01-10T19:45:08.450Z,12.17
2019-01-10T19:47:38.035Z,12.20
2019-01-10T19:50:09.586Z,15.20
2019-01-10T19:52:39.262Z,9.67
2019-01-10T19:55:09.999Z,9.83
2019-01-10T19:57:39.528Z,9.87
2019-01-10T20:00:14.132Z,8.93
2019-01-10T20:02:46.236Z,8.30
2019-01-10T20:05:15.758Z,8.90
2019-01-10T20:07:45.253Z,11.03
2019-01-10T20:10:16.843Z,13.70
2019-01-10T20:12:46.479Z,12.97
2019-01-10T20:15:16.400Z,12.03
2019-01-10T20:17:46.400Z,11.33
2019-01-10T20:20:20.757Z,12.00
2019-01-10T20:22:50.336Z,10.82
2019-01-10T20:25:19.822Z,9.20
2019-01-10T20:27:49.396Z,10.13
2019-01-10T20:30:19.262Z,9.50
2019-01-10T20:32:48.845Z,9.20
2019-01-10T20:35:18.328Z,7.30
2019-01-10T20:37:48.030Z,8.23
2019-01-10T20:40:17.708Z,7.17
2019-01-10T20:42:48.922Z,7.83
2019-01-10T20:45:18.538Z,8.47
2019-01-10T20:47:49.447Z,7.70
2019-01-10T20:50:38.410Z,8.97
2019-01-10T20:53:07.915Z,8.23
2019-01-10T20:55:37.509Z,7.80
2019-01-10T21:01:02.481Z,7.10
2019-01-10T21:08:54.392Z,7.80
2019-01-10T21:11:43.239Z,7.47
2019-01-10T21:14:12.728Z,7.17
2019-01-10T21:16:42.285Z,6.87
2019-01-10T21:19:32.420Z,7.70
2019-01-10T21:24:43.465Z,7.80
2019-01-10T21:27:13.076Z,9.07
2019-01-10T21:30:02.278Z,12.60
2019-01-10T21:32:31.965Z,11.97
2019-01-10T21:35:01.438Z,14.53
2019-01-10T21:37:31.007Z,13.00
2019-01-10T21:40:19.904Z,8.90
2019-01-10T21:45:30.402Z,10.07
2019-01-10T21:50:54.304Z,7.78
2019-01-10T21:53:23.817Z,9.90
2019-01-10T21:55:53.315Z,11.00
2019-01-10T21:58:22.925Z,8.90
2019-01-10T22:00:52.422Z,8.53
2019-01-10T22:03:27.248Z,7.57
2019-01-10T22:06:02.681Z,9.27
2019-01-10T22:08:32.197Z,7.90
2019-01-10T22:11:02.211Z,8.30
2019-01-10T22:13:38.750Z,8.30
2019-01-10T22:16:08.287Z,8.50
2019-01-10T22:18:41.451Z,8.00
2019-01-10T22:21:14.667Z,6.90
2019-01-10T22:23:44.219Z,8.20
2019-01-10T22:26:13.729Z,6.83
2019-01-10T22:28:43.422Z,6.93
2019-01-10T22:31:12.898Z,8.20
2019-01-10T22:33:42.406Z,7.40
2019-01-10T22:36:11.873Z,7.35
2019-01-10T22:38:41.496Z,6.57
2019-01-10T22:41:11.024Z,7.65
2019-01-10T22:43:40.520Z,7.13
2019-01-10T22:46:09.997Z,7.12
2019-01-10T22:48:39.570Z,6.47
2019-01-10T22:51:09.141Z,6.90
2019-01-10T22:56:32.718Z,8.40
2019-01-10T23:04:58.337Z,7.10
2019-01-10T23:07:27.917Z,7.57
2019-01-10T23:10:16.681Z,7.15
2019-01-10T23:12:48.398Z,6.97
2019-01-10T23:15:38.437Z,8.40
2019-01-10T23:18:28.776Z,6.20
2019-01-10T23:21:00.255Z,6.67
2019-01-10T23:23:54.107Z,7.27
2019-01-10T23:26:23.652Z,7.65
2019-01-10T23:28:53.156Z,6.90
2019-01-10T23:31:47.972Z,6.78
2019-01-10T23:34:17.568Z,6.70
2019-01-10T23:36:51.637Z,7.57
2019-01-10T23:39:42.645Z,8.67
2019-01-10T23:42:31.416Z,9.45
2019-01-10T23:45:01.421Z,7.97
2019-01-10T23:47:50.260Z,8.63
2019-01-10T23:50:20.358Z,8.68
2019-01-10T23:52:50.293Z,8.20
2019-01-10T23:55:20.312Z,6.78
